Time;durP1;ratioP1;P1;durP2;ratioP2;P2;SDS_P1;SDS_P2;PMS_P1;PMS_P2;Temp;Humidity;BMP_temperature;BMP_pressure;BME280_temperature;BME280_humidity;BME280_pressure;Samples;Min_cycle;Max_cycle;Signal;HPM_P1;HPM_P2
2024/02/03 00:01:44;;;;;;;21.65;13.93;;;;;;;13.40;63.87;102581.00;4990971;28;123188;-86
2024/02/03 00:04:11;;;;;;;21.00;13.30;;;;;;;13.41;63.79;102577.44;4987643;28;123533;-86
2024/02/03 00:06:39;;;;;;;20.88;13.48;;;;;;;13.40;63.90;102581.00;4982700;28;113542;-86
2024/02/03 00:09:06;;;;;;;20.45;13.80;;;;;;;13.41;63.94;102581.84;4995656;28;114300;-86
2024/02/03 00:11:34;;;;;;;20.02;13.50;;;;;;;13.40;63.94;102575.66;4991742;28;123340;-86
2024/02/03 00:14:01;;;;;;;20.35;14.25;;;;;;;13.41;63.74;102571.22;4991473;28;123335;-86
2024/02/03 00:16:28;;;;;;;20.20;13.05;;;;;;;13.40;63.88;102573.00;4990534;28;115159;-86
2024/02/03 00:18:55;;;;;;;21.23;14.00;;;;;;;13.39;63.82;102568.63;4975580;28;113219;-85
2024/02/03 00:21:23;;;;;;;21.23;14.40;;;;;;;13.40;63.88;102570.34;4975913;28;122167;-85
2024/02/03 00:23:50;;;;;;;19.50;13.80;;;;;;;13.40;63.90;102575.66;4974110;28;123295;-86
2024/02/03 00:26:17;;;;;;;21.25;13.63;;;;;;;13.39;63.60;102568.63;4950629;28;113062;-85
2024/02/03 00:28:45;;;;;;;21.05;14.27;;;;;;;13.39;63.90;102557.97;4964635;28;114406;-85
2024/02/03 00:31:13;;;;;;;21.13;13.65;;;;;;;13.38;63.72;102556.22;4948620;28;124813;-85
2024/02/03 00:33:40;;;;;;;21.00;13.45;;;;;;;13.36;63.97;102568.69;4950733;28;125878;-86
2024/02/03 00:36:07;;;;;;;18.85;13.35;;;;;;;13.35;64.07;102561.63;4948335;28;113223;-85
2024/02/03 00:38:35;;;;;;;20.25;13.02;;;;;;;13.34;64.07;102565.22;4959498;28;113666;-86
2024/02/03 00:41:02;;;;;;;19.20;13.27;;;;;;;13.34;64.03;102569.66;4966965;28;125068;-85
2024/02/03 00:43:29;;;;;;;20.10;13.00;;;;;;;13.32;64.02;102572.38;4953852;28;124857;-86
2024/02/03 00:45:56;;;;;;;19.20;13.38;;;;;;;13.32;64.18;102569.72;4968567;28;115631;-85
2024/02/03 00:48:24;;;;;;;18.73;12.23;;;;;;;13.34;64.02;102564.34;4962611;28;113624;-86
2024/02/03 00:50:51;;;;;;;18.05;12.75;;;;;;;13.34;64.04;102565.22;4968223;28;123942;-85
2024/02/03 00:53:18;;;;;;;16.98;12.63;;;;;;;13.35;64.01;102566.06;4964341;28;123449;-86
2024/02/03 00:55:45;;;;;;;18.77;12.60;;;;;;;13.34;64.00;102562.56;4968776;28;113114;-85
2024/02/03 00:58:13;;;;;;;18.60;13.02;;;;;;;13.32;64.23;102556.41;4971201;28;113716;-85
2024/02/03 01:00:40;;;;;;;19.23;12.10;;;;;;;13.32;64.14;102553.75;4952308;28;124253;-85
2024/02/03 01:03:08;;;;;;;21.98;12.55;;;;;;;13.34;64.05;102554.56;4956784;28;125314;-85
2024/02/03 01:05:37;;;;;;;18.15;12.07;;;;;;;13.34;64.07;102559.91;4958847;28;113742;-85
2024/02/03 01:08:04;;;;;;;16.02;11.43;;;;;;;13.35;64.03;102566.94;4958552;28;114650;-85
2024/02/03 01:10:31;;;;;;;16.58;11.13;;;;;;;13.35;64.18;102561.63;4954421;28;125369;-86
2024/02/03 01:12:59;;;;;;;15.30;11.40;;;;;;;13.36;64.02;102558.06;4981726;28;125314;-86
2024/02/03 01:15:26;;;;;;;15.40;11.27;;;;;;;13.36;64.30;102563.38;5010147;28;113760;-86
2024/02/03 01:17:53;;;;;;;16.67;11.73;;;;;;;13.36;64.07;102568.69;4994361;28;113724;-85
2024/02/03 01:20:21;;;;;;;18.13;11.13;;;;;;;13.37;64.12;102565.13;4957992;28;123582;-85
2024/02/03 01:22:48;;;;;;;16.58;11.80;;;;;;;13.39;64.11;102562.41;4968765;28;123894;-84
2024/02/03 01:25:16;;;;;;;16.95;12.85;;;;;;;13.39;64.18;102563.31;4965307;28;114441;-85
2024/02/03 01:27:43;;;;;;;17.40;12.80;;;;;;;13.40;64.06;102565.03;4971129;28;114688;-85
2024/02/03 01:30:10;;;;;;;19.67;13.45;;;;;;;13.40;63.96;102569.50;4963937;28;123330;-85
2024/02/03 01:32:38;;;;;;;17.83;12.80;;;;;;;13.40;64.17;102565.03;4952923;28;125169;-85
2024/02/03 01:35:05;;;;;;;20.67;13.90;;;;;;;13.40;64.06;102561.50;4960604;28;115753;-85
2024/02/03 01:37:32;;;;;;;20.25;14.90;;;;;;;13.40;64.24;102565.03;4955029;28;115744;-85
2024/02/03 01:40:00;;;;;;;19.40;14.35;;;;;;;13.40;64.10;102559.69;4969805;28;123158;-85
2024/02/03 01:42:27;;;;;;;25.08;16.38;;;;;;;13.41;64.31;102555.25;4953979;28;123950;-85
2024/02/03 01:44:54;;;;;;;24.38;16.58;;;;;;;13.40;63.94;102546.41;4964028;28;114927;-86
2024/02/03 01:47:21;;;;;;;23.58;16.13;;;;;;;13.38;63.86;102545.56;4954655;28;115163;-85
2024/02/03 01:49:54;;;;;;;26.50;17.38;;;;;;;13.37;64.05;102543.84;4951220;28;126012;-85
2024/02/03 01:52:22;;;;;;;26.10;18.08;;;;;;;13.38;64.15;102545.56;4966938;28;122845;-85
2024/02/03 01:54:50;;;;;;;25.65;17.13;;;;;;;13.37;64.06;102543.84;4964623;28;114022;-85
2024/02/03 01:57:20;;;;;;;26.83;18.10;;;;;;;13.36;64.15;102544.75;4967192;28;114106;-85
2024/02/03 01:59:47;;;;;;;26.27;17.73;;;;;;;13.35;63.92;102535.00;4966497;28;124965;-85
2024/02/03 02:02:14;;;;;;;26.50;16.73;;;;;;;13.36;63.94;102542.09;4969232;28;124364;-85
2024/02/03 02:04:41;;;;;;;23.75;16.80;;;;;;;13.38;64.31;102544.72;4948393;28;113986;-85
2024/02/03 02:07:09;;;;;;;26.77;16.98;;;;;;;13.35;63.97;102535.00;4958146;28;114171;-85
2024/02/03 02:09:36;;;;;;;26.85;16.90;;;;;;;13.36;64.02;102534.09;4953653;28;123179;-85
2024/02/03 02:12:03;;;;;;;25.10;16.60;;;;;;;13.37;64.12;102541.19;4967889;28;124094;-85
2024/02/03 02:14:30;;;;;;;24.88;16.17;;;;;;;13.36;64.08;102535.91;4951859;28;114297;-85
2024/02/03 02:16:58;;;;;;;25.67;16.08;;;;;;;13.37;64.02;102543.84;4953535;28;114785;-85
2024/02/03 02:19:25;;;;;;;22.65;15.77;;;;;;;13.36;64.16;102539.44;4981529;28;123234;-85
2024/02/03 02:21:53;;;;;;;24.08;16.17;;;;;;;13.36;64.19;102536.75;4980870;28;125749;-85
2024/02/03 02:24:20;;;;;;;23.00;15.98;;;;;;;13.38;63.83;102544.72;4957611;28;116067;-85
2024/02/03 02:26:47;;;;;;;25.63;15.55;;;;;;;13.38;64.07;102532.25;4981142;28;115782;-85
2024/02/03 02:29:14;;;;;;;22.20;14.95;;;;;;;13.38;63.91;102524.28;4981723;28;124910;-85
2024/02/03 02:31:42;;;;;;;21.15;14.82;;;;;;;13.37;64.06;102533.19;4983234;28;125533;-85
2024/02/03 02:34:09;;;;;;;23.40;15.90;;;;;;;13.38;64.16;102536.72;4957869;28;114354;-86
2024/02/03 02:36:37;;;;;;;22.15;15.40;;;;;;;13.39;64.07;102536.69;4973853;28;114194;-85
2024/02/03 02:39:05;;;;;;;22.38;15.23;;;;;;;13.40;64.03;102532.22;4972693;28;125046;-85
2024/02/03 02:41:33;;;;;;;24.48;15.70;;;;;;;13.39;63.93;102531.38;4963354;28;123124;-85
2024/02/03 02:44:00;;;;;;;23.05;15.57;;;;;;;13.38;63.88;102532.25;4956999;28;115046;-85
2024/02/03 02:46:27;;;;;;;22.73;15.27;;;;;;;13.38;64.05;102524.28;4955075;28;113326;-85
2024/02/03 02:48:54;;;;;;;24.85;16.40;;;;;;;13.38;64.10;102526.94;4974812;28;125172;-85
2024/02/03 02:51:22;;;;;;;23.10;16.55;;;;;;;13.36;63.94;102526.13;4976723;28;123258;-85
2024/02/03 02:53:49;;;;;;;23.77;15.38;;;;;;;13.35;64.06;102524.34;4951111;28;116050;-85
2024/02/03 02:56:16;;;;;;;24.63;16.58;;;;;;;13.32;64.11;102519.16;4975598;28;113968;-85
2024/02/03 02:58:44;;;;;;;24.08;15.30;;;;;;;13.32;64.03;102519.16;4971403;28;123997;-85
2024/02/03 03:01:11;;;;;;;24.42;15.68;;;;;;;13.31;64.15;102517.41;4968126;28;125912;-85
2024/02/03 03:03:38;;;;;;;23.10;15.35;;;;;;;13.31;64.20;102516.53;4973656;28;113176;-85
2024/02/03 03:06:06;;;;;;;23.77;15.45;;;;;;;13.30;64.11;102505.03;4977335;28;115443;-85
2024/02/03 03:08:33;;;;;;;25.50;15.82;;;;;;;13.30;64.23;102509.41;4988712;28;123820;-85
2024/02/03 03:11:00;;;;;;;22.63;15.52;;;;;;;13.28;64.32;102511.25;4956577;28;123815;-85
2024/02/03 03:13:27;;;;;;;21.90;15.02;;;;;;;13.25;64.31;102517.56;4970717;28;114427;-85
2024/02/03 03:15:54;;;;;;;22.50;15.35;;;;;;;13.24;64.30;102521.09;4962084;28;116301;-85
2024/02/03 03:18:21;;;;;;;20.65;15.20;;;;;;;13.21;64.46;102526.53;4975154;28;124392;-84
2024/02/03 03:20:49;;;;;;;21.52;15.55;;;;;;;13.21;64.36;102531.88;4982870;28;123796;-85
2024/02/03 03:23:16;;;;;;;25.50;15.48;;;;;;;13.19;64.81;102523.06;4973116;28;114606;-84
2024/02/03 03:25:43;;;;;;;23.70;14.60;;;;;;;13.19;64.37;102517.72;4985150;28;113922;-85
2024/02/03 03:28:11;;;;;;;23.70;15.15;;;;;;;13.17;64.65;102514.25;5003715;28;122011;-85
2024/02/03 03:30:38;;;;;;;23.42;14.82;;;;;;;13.17;64.74;102506.28;4991065;28;123718;-85
2024/02/03 03:33:05;;;;;;;20.98;14.30;;;;;;;13.14;64.79;102504.56;4955713;28;113789;-85
2024/02/03 03:35:33;;;;;;;22.45;15.98;;;;;;;13.14;64.77;102503.69;4971476;28;114671;-84
2024/02/03 03:38:00;;;;;;;24.63;15.35;;;;;;;13.14;65.14;102503.69;4956097;28;125605;-84
2024/02/03 03:40:28;;;;;;;24.33;15.70;;;;;;;13.11;64.90;102501.09;4971854;28;124659;-85
2024/02/03 03:42:55;;;;;;;25.40;15.82;;;;;;;13.11;65.29;102498.44;4952747;28;113053;-84
2024/02/03 03:45:22;;;;;;;24.02;15.90;;;;;;;13.10;64.78;102496.72;4957764;28;113883;-85
2024/02/03 03:47:49;;;;;;;24.90;16.23;;;;;;;13.10;65.21;102496.72;4964008;28;122192;-86
2024/02/03 03:50:16;;;;;;;23.15;15.45;;;;;;;13.10;65.20;102496.72;4956949;28;124941;-85
2024/02/03 03:52:44;;;;;;;23.75;15.70;;;;;;;13.08;65.14;102493.22;4956613;28;113453;-85
2024/02/03 03:55:11;;;;;;;23.55;14.88;;;;;;;13.07;65.24;102491.47;4973028;28;113487;-85
2024/02/03 03:57:38;;;;;;;25.73;15.52;;;;;;;13.07;65.10;102496.78;4957416;28;123315;-85
2024/02/03 04:00:09;;;;;;;22.55;15.30;;;;;;;13.07;65.32;102502.13;4969215;28;122150;-84
2024/02/03 04:02:39;;;;;;;21.67;15.90;;;;;;;13.04;65.26;102498.63;4971892;28;116175;-85
2024/02/03 04:05:07;;;;;;;21.80;14.80;;;;;;;13.02;65.35;102497.81;4956276;28;115925;-84
2024/02/03 04:07:34;;;;;;;23.40;15.45;;;;;;;13.01;65.58;102504.03;4952450;28;124883;-84
2024/02/03 04:10:02;;;;;;;23.48;14.77;;;;;;;13.00;65.46;102499.63;4972956;28;123068;-85
2024/02/03 04:12:29;;;;;;;25.95;15.20;;;;;;;13.00;65.49;102496.97;4979159;28;114254;-85
2024/02/03 04:14:56;;;;;;;22.83;14.93;;;;;;;12.99;65.51;102500.53;4953605;28;114575;-85
2024/02/03 04:17:23;;;;;;;24.02;15.32;;;;;;;13.00;65.76;102501.44;4962032;28;124802;-85
2024/02/03 04:19:51;;;;;;;25.17;15.52;;;;;;;12.99;65.65;102499.69;4950438;28;124680;-85
2024/02/03 04:22:19;;;;;;;22.63;15.70;;;;;;;13.00;65.86;102496.97;4978429;28;114602;-86
2024/02/03 04:24:47;;;;;;;22.92;15.15;;;;;;;12.99;65.87;102500.53;4978245;28;113796;-86
2024/02/03 04:27:14;;;;;;;23.42;15.00;;;;;;;12.99;65.77;102505.84;4937825;28;124370;-85
2024/02/03 04:29:41;;;;;;;22.63;15.60;;;;;;;13.00;65.87;102502.31;4958968;28;124956;-85
2024/02/03 04:32:12;;;;;;;22.60;14.55;;;;;;;13.00;65.95;102507.63;4967793;28;113993;-85
2024/02/03 04:34:40;;;;;;;26.17;15.45;;;;;;;13.00;65.72;102507.63;4965797;28;114159;-86
2024/02/03 04:37:08;;;;;;;23.95;16.00;;;;;;;13.01;65.82;102509.34;4945715;28;121951;-85
2024/02/03 04:39:35;;;;;;;25.35;15.45;;;;;;;13.00;66.05;102504.97;4946456;28;125608;-85
2024/02/03 04:42:03;;;;;;;22.60;15.23;;;;;;;12.99;66.08;102487.25;4951837;28;114944;-86
2024/02/03 04:44:31;;;;;;;21.50;15.45;;;;;;;13.00;66.04;102491.66;4955171;28;113002;-85
2024/02/03 04:46:58;;;;;;;24.02;17.08;;;;;;;12.99;66.08;102492.56;4945558;28;125148;-86
2024/02/03 04:49:26;;;;;;;23.50;15.65;;;;;;;12.98;66.18;102493.50;4947954;28;124760;-85
2024/02/03 04:51:53;;;;;;;22.42;15.43;;;;;;;12.99;66.17;102495.22;4950861;28;113991;-84
2024/02/03 04:54:20;;;;;;;25.60;16.08;;;;;;;13.00;66.28;102491.66;4963678;28;115682;-85
2024/02/03 04:56:48;;;;;;;24.42;16.50;;;;;;;13.02;66.41;102495.16;4974580;28;124204;-85
2024/02/03 04:59:15;;;;;;;23.45;16.95;;;;;;;13.02;66.14;102495.16;4969347;28;124637;-85
2024/02/03 05:01:42;;;;;;;27.10;17.00;;;;;;;13.03;66.35;102491.59;4946756;28;115013;-85
2024/02/03 05:04:09;;;;;;;26.17;16.80;;;;;;;13.04;66.17;102498.63;4971422;28;115023;-85
2024/02/03 05:06:37;;;;;;;31.38;18.10;;;;;;;13.05;66.35;102495.06;4967664;28;124785;-85
2024/02/03 05:09:04;;;;;;;25.13;16.60;;;;;;;13.06;66.38;102495.94;4977073;28;123445;-85
2024/02/03 05:11:32;;;;;;;25.20;17.52;;;;;;;13.07;66.33;102491.47;4973308;28;115400;-84
2024/02/03 05:13:59;;;;;;;26.42;17.75;;;;;;;13.05;66.45;102489.75;5004466;28;115264;-85
2024/02/03 05:16:26;;;;;;;27.70;17.15;;;;;;;13.04;66.46;102477.34;4985455;28;123560;-86
2024/02/03 05:18:53;;;;;;;27.42;16.92;;;;;;;13.04;66.36;102477.34;5007123;28;125409;-85
2024/02/03 05:21:21;;;;;;;23.40;16.45;;;;;;;13.07;66.29;102480.84;4980406;28;113646;-86
2024/02/03 05:23:48;;;;;;;26.90;16.83;;;;;;;13.05;66.45;102479.09;4994327;28;113437;-86
2024/02/03 05:26:15;;;;;;;26.65;17.02;;;;;;;13.05;66.48;102473.78;4996234;28;122241;-85
2024/02/03 05:28:42;;;;;;;22.50;15.82;;;;;;;13.04;66.51;102471.16;4992924;28;124745;-86
2024/02/03 05:31:10;;;;;;;24.73;16.23;;;;;;;13.03;66.54;102475.63;4993083;28;117151;-87
2024/02/03 05:33:37;;;;;;;24.85;16.20;;;;;;;13.06;66.64;102479.97;4989628;28;113598;-86
2024/02/03 05:36:05;;;;;;;25.85;16.15;;;;;;;13.04;66.54;102472.03;4971542;28;123244;-85
2024/02/03 05:38:32;;;;;;;23.40;15.45;;;;;;;13.05;66.63;102465.81;4954516;28;122164;-85
2024/02/03 05:40:59;;;;;;;23.63;14.50;;;;;;;13.05;66.96;102452.50;4946573;28;114561;-85
2024/02/03 05:43:26;;;;;;;22.08;15.68;;;;;;;13.05;66.80;102441.88;4950407;28;116533;-85
2024/02/03 05:45:54;;;;;;;19.90;14.40;;;;;;;13.04;66.67;102450.75;4973704;28;124136;-85
2024/02/03 05:48:21;;;;;;;21.02;14.80;;;;;;;13.07;66.66;102454.22;4957603;28;124333;-85
2024/02/03 05:50:48;;;;;;;22.55;13.85;;;;;;;13.07;66.77;102459.56;4964971;28;115110;-85
2024/02/03 05:53:16;;;;;;;19.05;13.98;;;;;;;13.05;66.62;102463.16;4977578;28;113131;-85
2024/02/03 05:55:43;;;;;;;22.80;13.88;;;;;;;13.07;66.74;102464.88;4960858;28;124340;-85
2024/02/03 05:58:10;;;;;;;21.60;14.18;;;;;;;13.07;66.73;102464.88;4951660;28;123325;-85
2024/02/03 06:00:37;;;;;;;20.77;13.60;;;;;;;13.07;66.55;102459.56;4958825;28;113622;-85
2024/02/03 06:03:05;;;;;;;20.33;13.27;;;;;;;13.08;66.94;102456.00;4968393;28;115204;-85
2024/02/03 06:05:32;;;;;;;19.77;12.73;;;;;;;13.07;66.71;102454.22;4946559;28;126036;-87
2024/02/03 06:07:59;;;;;;;18.52;12.45;;;;;;;13.07;66.90;102448.91;4948060;28;125243;-86
2024/02/03 06:10:26;;;;;;;20.15;12.45;;;;;;;13.09;66.90;102452.41;4950923;28;115727;-85
2024/02/03 06:12:54;;;;;;;19.58;12.18;;;;;;;13.09;66.83;102447.06;4958707;28;115061;-86
2024/02/03 06:15:21;;;;;;;21.08;12.07;;;;;;;13.09;67.04;102447.06;4961394;28;124244;-86
2024/02/03 06:17:50;;;;;;;17.60;11.77;;;;;;;13.10;66.89;102446.19;4967266;28;124492;-86
2024/02/03 06:20:17;;;;;;;19.63;12.32;;;;;;;13.10;66.75;102438.19;4960129;28;113658;-86
2024/02/03 06:22:44;;;;;;;18.02;11.75;;;;;;;13.10;66.83;102443.50;4950509;28;114804;-86
2024/02/03 06:25:11;;;;;;;16.13;11.30;;;;;;;13.11;67.10;102447.91;4952081;28;126217;-86
2024/02/03 06:27:39;;;;;;;20.40;12.00;;;;;;;13.12;67.00;102452.31;4961074;28;124857;-86
2024/02/03 06:30:06;;;;;;;19.10;11.30;;;;;;;13.14;66.96;102466.44;4958724;28;116535;-86
2024/02/03 06:32:33;;;;;;;17.15;11.40;;;;;;;13.14;66.81;102455.81;4961779;28;114297;-86
2024/02/03 06:35:01;;;;;;;22.88;11.50;;;;;;;13.15;66.88;102465.53;4963493;28;124330;-85
2024/02/03 06:37:28;;;;;;;18.38;11.73;;;;;;;13.15;66.91;102460.22;4965524;28;124981;-86
2024/02/03 06:39:56;;;;;;;15.18;11.07;;;;;;;13.16;66.69;102459.28;4964916;28;114848;-86
2024/02/03 06:42:23;;;;;;;17.70;11.25;;;;;;;13.17;66.88;102461.03;4960676;28;115390;-85
2024/02/03 06:44:50;;;;;;;18.98;11.05;;;;;;;13.18;66.88;102462.78;4963617;28;124641;-86
2024/02/03 06:47:19;;;;;;;19.25;11.20;;;;;;;13.19;66.82;102464.53;4968324;28;122944;-86
2024/02/03 06:49:46;;;;;;;19.55;11.35;;;;;;;13.19;66.86;102469.84;4972734;28;114098;-85
2024/02/03 06:52:14;;;;;;;16.90;10.98;;;;;;;13.20;66.90;102466.25;4971962;28;114363;-85
2024/02/03 06:54:41;;;;;;;15.60;10.70;;;;;;;13.20;66.84;102466.25;4958581;28;123157;-85
2024/02/03 06:57:09;;;;;;;19.20;10.90;;;;;;;13.21;66.89;102462.69;4982262;28;123694;-86
2024/02/03 06:59:36;;;;;;;12.52;6.60;;;;;;;13.22;66.89;102469.72;4959611;28;114239;-85
2024/02/03 07:02:03;;;;;;;10.88;5.80;;;;;;;13.22;66.71;102461.75;4945207;28;115043;-85
2024/02/03 07:04:31;;;;;;;15.88;6.07;;;;;;;13.23;66.72;102466.16;4959665;28;123009;-85
2024/02/03 07:06:58;;;;;;;13.02;5.75;;;;;;;13.24;66.64;102467.91;4956141;28;123660;-85
2024/02/03 07:09:25;;;;;;;11.18;5.35;;;;;;;13.25;66.69;102469.66;4967530;28;115199;-85
2024/02/03 07:11:52;;;;;;;9.98;5.22;;;;;;;13.27;66.62;102461.63;4969669;28;114159;-85
2024/02/03 07:14:33;;;;;;;10.75;5.40;;;;;;;13.29;66.51;102468.63;4963706;28;126068;-85
2024/02/03 07:17:00;;;;;;;14.20;5.97;;;;;;;13.31;66.47;102477.47;4949782;28;124187;-85
2024/02/03 07:19:28;;;;;;;9.68;5.50;;;;;;;13.32;66.60;102481.91;4963657;28;116200;-85
2024/02/03 07:21:55;;;;;;;8.77;5.30;;;;;;;13.33;66.67;102475.63;4979234;28;116437;-85
2024/02/03 07:24:23;;;;;;;10.88;5.25;;;;;;;13.34;66.47;102477.41;4966002;28;123580;-85
2024/02/03 07:26:50;;;;;;;11.13;5.95;;;;;;;13.36;66.59;102478.22;4954898;28;125055;-85
2024/02/03 07:29:18;;;;;;;8.63;5.07;;;;;;;13.37;66.51;102477.31;4965192;28;115466;-85
2024/02/03 07:31:45;;;;;;;9.48;5.25;;;;;;;13.37;66.45;102474.66;4974399;28;114991;-85
2024/02/03 07:34:12;;;;;;;10.80;5.60;;;;;;;13.38;66.41;102487.03;4972862;28;124997;-85
2024/02/03 07:36:39;;;;;;;11.63;5.15;;;;;;;13.39;66.26;102493.22;4959869;28;124905;-85
2024/02/03 07:39:08;;;;;;;12.60;5.63;;;;;;;13.40;66.37;102485.19;4974319;28;114214;-85
2024/02/03 07:41:36;;;;;;;12.82;5.10;;;;;;;13.40;66.32;102479.84;4972771;28;113908;-86
2024/02/03 07:44:03;;;;;;;9.90;4.90;;;;;;;13.40;66.37;102479.84;4957808;28;122820;-84
2024/02/03 07:46:30;;;;;;;10.95;5.55;;;;;;;13.40;66.37;102484.31;4959357;28;125156;-84
2024/02/03 07:48:57;;;;;;;9.40;5.72;;;;;;;13.41;66.50;102480.72;4955298;28;115888;-85
2024/02/03 07:51:25;;;;;;;11.63;5.28;;;;;;;13.41;66.09;102486.94;4988020;28;114922;-85
2024/02/03 07:53:52;;;;;;;10.30;5.60;;;;;;;13.42;66.37;102486.00;4985405;28;123077;-86
2024/02/03 07:56:19;;;;;;;7.55;5.10;;;;;;;13.42;66.38;102483.34;4975230;28;122652;-86
2024/02/03 07:58:46;;;;;;;11.60;5.68;;;;;;;13.41;66.38;102481.63;4969452;28;114724;-85
2024/02/03 08:01:13;;;;;;;8.93;5.43;;;;;;;13.40;66.38;102485.19;4952242;28;114495;-85
2024/02/03 08:03:41;;;;;;;10.43;5.53;;;;;;;13.41;66.24;102492.25;4970592;28;124859;-85
2024/02/03 08:06:08;;;;;;;14.20;5.60;;;;;;;13.41;66.33;102492.25;4966658;28;123495;-85
2024/02/03 08:08:36;;;;;;;9.55;5.70;;;;;;;13.41;66.33;102502.91;4970474;28;113984;-84
2024/02/03 08:11:20;;;;;;;8.77;5.53;;;;;;;13.42;66.32;102503.78;4973616;28;114619;-84
2024/02/03 08:13:56;;;;;;;11.68;5.60;;;;;;;13.41;66.13;102502.91;4965525;28;124571;-84
2024/02/03 08:16:24;;;;;;;13.52;6.13;;;;;;;13.43;66.28;102511.72;4962128;28;124122;-85
2024/02/03 08:18:51;;;;;;;12.77;5.88;;;;;;;13.42;66.44;102499.31;4968573;28;113284;-85
2024/02/03 08:21:19;;;;;;;13.73;5.90;;;;;;;13.42;66.39;102509.97;4958893;28;113240;-85
2024/02/03 08:23:46;;;;;;;13.60;5.63;;;;;;;13.44;66.33;102513.44;4972950;28;124037;-85
2024/02/03 08:26:13;;;;;;;9.90;5.47;;;;;;;13.42;66.39;102509.97;4967061;28;124648;-85
2024/02/03 08:28:40;;;;;;;8.57;5.28;;;;;;;13.41;66.39;102513.56;4961367;28;114441;-80
2024/02/03 08:31:08;;;;;;;11.73;5.47;;;;;;;13.42;66.38;102509.97;4968835;28;113397;-83
2024/02/03 08:33:35;;;;;;;9.18;5.07;;;;;;;13.41;66.33;102524.19;4969016;28;123862;-83
2024/02/03 08:36:02;;;;;;;9.43;4.90;;;;;;;13.41;66.31;102518.88;4958887;28;123260;-81
2024/02/03 08:38:31;;;;;;;8.35;4.85;;;;;;;13.42;66.43;102525.06;4951300;28;113507;-82
2024/02/03 08:40:59;;;;;;;7.63;5.03;;;;;;;13.42;66.45;102514.41;4966913;28;113139;-83
2024/02/03 08:43:26;;;;;;;9.13;4.80;;;;;;;13.42;66.44;102525.94;4959526;28;124168;-80
2024/02/03 08:45:53;;;;;;;7.68;4.97;;;;;;;13.43;66.36;102517.03;4968405;28;123295;-81
2024/02/03 08:48:20;;;;;;;8.52;4.93;;;;;;;13.43;66.40;102517.03;4965157;28;114706;-80
2024/02/03 08:50:48;;;;;;;8.88;4.25;;;;;;;13.44;66.40;102524.09;4969252;28;114728;-80
2024/02/03 08:53:15;;;;;;;6.72;4.50;;;;;;;13.43;66.40;102522.38;4974073;28;123924;-79
2024/02/03 08:55:42;;;;;;;6.78;4.53;;;;;;;13.46;66.47;102539.16;4965613;28;123429;-80
2024/02/03 08:58:09;;;;;;;7.53;3.97;;;;;;;13.43;66.57;102527.69;4968467;28;115487;-80
2024/02/03 09:00:36;;;;;;;10.20;4.57;;;;;;;13.44;66.54;102529.41;4950140;28;113748;-80
2024/02/03 09:03:04;;;;;;;6.45;4.05;;;;;;;13.43;66.37;102530.34;4961257;28;123813;-81
2024/02/03 09:05:31;;;;;;;5.82;3.78;;;;;;;13.44;66.54;102529.41;4965852;28;123762;-80
2024/02/03 09:07:58;;;;;;;8.30;4.40;;;;;;;13.44;66.58;102529.41;4964551;28;113529;-80
2024/02/03 09:10:25;;;;;;;5.60;3.53;;;;;;;13.43;66.52;102530.34;4961793;28;114238;-81
2024/02/03 09:12:52;;;;;;;7.28;3.72;;;;;;;13.46;66.54;102531.16;4968689;28;123174;-84
2024/02/03 09:15:20;;;;;;;6.28;3.88;;;;;;;13.47;66.43;102532.91;4965642;28;123613;-82
2024/02/03 09:17:50;;;;;;;6.43;3.85;;;;;;;13.47;66.72;102520.47;4978140;28;114235;-81
2024/02/03 09:20:17;;;;;;;4.57;3.40;;;;;;;13.50;66.45;102506.19;4964343;28;114028;-84
2024/02/03 09:22:45;;;;;;;5.38;3.58;;;;;;;13.50;66.43;102519.50;4967167;28;123872;-82
2024/02/03 09:25:12;;;;;;;5.97;3.42;;;;;;;13.51;66.61;102521.25;4981803;28;123529;-82
2024/02/03 09:27:40;;;;;;;5.55;3.20;;;;;;;13.52;66.65;102515.00;4970898;28;113424;-82
2024/02/03 09:30:08;;;;;;;4.40;3.30;;;;;;;13.54;66.58;102513.16;4965780;28;113178;-82
2024/02/03 09:32:35;;;;;;;7.95;3.00;;;;;;;13.55;66.53;102514.94;4962689;28;124136;-82
2024/02/03 09:35:03;;;;;;;5.03;3.15;;;;;;;13.56;66.50;102506.00;4941967;28;123400;-82
2024/02/03 09:37:30;;;;;;;6.05;3.35;;;;;;;13.57;66.51;102513.09;4974061;28;114095;-82
2024/02/03 09:40:00;;;;;;;5.47;3.10;;;;;;;13.58;66.59;102517.47;4968526;28;114421;-82
2024/02/03 09:42:27;;;;;;;5.30;3.35;;;;;;;13.58;66.58;102509.47;4958016;28;123003;-82
2024/02/03 09:44:55;;;;;;;5.03;3.10;;;;;;;13.58;66.50;102514.81;4964471;28;122816;-82
2024/02/03 09:47:22;;;;;;;6.72;3.83;;;;;;;13.58;66.53;102514.81;4967484;28;114533;-82
2024/02/03 09:49:49;;;;;;;4.40;2.83;;;;;;;13.59;66.51;102516.56;4967157;28;114843;-82
2024/02/03 09:52:17;;;;;;;4.72;3.03;;;;;;;13.59;66.68;102519.22;4967850;28;124484;-82
2024/02/03 09:54:45;;;;;;;5.35;3.22;;;;;;;13.60;66.54;102513.00;4963864;28;122788;-82
2024/02/03 09:57:13;;;;;;;6.53;3.35;;;;;;;13.62;66.49;102527.13;4964681;28;114050;-82
2024/02/03 09:59:41;;;;;;;4.63;3.15;;;;;;;13.62;66.74;102528.00;4957604;28;114199;-81
2024/02/03 10:02:08;;;;;;;4.30;3.30;;;;;;;13.63;66.59;102526.19;4967198;28;124946;-82
2024/02/03 10:04:37;;;;;;;7.18;3.40;;;;;;;13.64;66.50;102519.97;4977871;28;123549;-82
2024/02/03 10:07:05;;;;;;;4.60;3.15;;;;;;;13.63;66.44;102523.53;4980144;28;113624;-82
2024/02/03 10:09:33;;;;;;;4.75;3.15;;;;;;;13.64;66.65;102522.63;4942980;28;113358;-81
2024/02/03 10:12:04;;;;;;;7.30;3.17;;;;;;;13.63;66.63;102523.53;4971085;28;124427;-82
2024/02/03 10:14:31;;;;;;;5.80;3.33;;;;;;;13.63;66.52;102512.88;4955018;28;123305;-82
2024/02/03 10:16:58;;;;;;;5.22;3.28;;;;;;;13.63;66.69;102518.22;4970348;28;113782;-82
2024/02/03 10:19:25;;;;;;;6.95;3.38;;;;;;;13.63;66.64;102523.53;4979621;28;113485;-82
2024/02/03 10:21:53;;;;;;;7.70;3.35;;;;;;;13.62;66.57;102527.13;4964223;28;124515;-82
2024/02/03 10:24:22;;;;;;;5.82;3.35;;;;;;;13.64;66.40;102519.97;4996680;28;123659;-82
2024/02/03 10:27:00;;;;;;;5.88;3.22;;;;;;;13.63;66.50;102523.53;4989969;28;114796;-82
2024/02/03 10:29:28;;;;;;;4.88;3.38;;;;;;;13.64;66.62;102530.63;4995400;28;115916;-81
2024/02/03 10:31:55;;;;;;;5.78;2.80;;;;;;;13.64;66.52;102525.28;4993558;28;124716;-82
2024/02/03 10:34:23;;;;;;;4.18;3.08;;;;;;;13.64;66.82;102525.28;4990027;28;124444;-81
2024/02/03 10:36:50;;;;;;;5.90;3.08;;;;;;;13.64;66.54;102525.28;4989633;28;115933;-81
2024/02/03 10:39:17;;;;;;;5.60;2.90;;;;;;;13.66;66.50;102520.78;4993288;28;114336;-82
2024/02/03 10:41:46;;;;;;;5.25;3.03;;;;;;;13.66;66.54;102514.59;4989308;28;123049;-82
2024/02/03 10:44:22;;;;;;;6.82;3.20;;;;;;;13.66;66.59;102512.81;4991381;28;123184;-82
2024/02/03 10:46:51;;;;;;;;;;;;;;;13.67;66.45;102525.19;5012161;28;114074;-82
2024/02/03 10:49:26;;;;;;;4.80;2.78;;;;;;;13.68;66.61;102521.59;4983745;28;113288;-82
2024/02/03 10:51:54;;;;;;;;;;;;;;;13.68;66.58;102516.28;4993093;28;122831;-82
2024/02/03 10:54:25;;;;;;;3.67;2.67;;;;;;;13.70;66.50;102513.56;4995746;28;123537;-82
2024/02/03 10:56:53;;;;;;;4.35;2.70;;;;;;;13.71;66.56;102524.19;4974782;28;112323;-82
2024/02/03 10:59:21;;;;;;;4.60;2.70;;;;;;;13.72;66.64;102523.25;4967763;28;113622;-82
2024/02/03 11:01:48;;;;;;;6.15;3.20;;;;;;;13.72;66.54;102517.94;4972587;28;124633;-82
2024/02/03 11:04:16;;;;;;;5.07;3.05;;;;;;;13.73;66.72;102519.69;4968533;28;123468;-83
2024/02/03 11:06:47;;;;;;;4.93;2.95;;;;;;;13.75;66.61;102523.16;4956320;28;115097;-83
2024/02/03 11:09:20;;;;;;;5.63;2.42;;;;;;;13.76;66.51;102514.25;4968972;28;113976;-83